sensor_id;sensor_type;location;lat;lon;timestamp;temperature;humidity
62998;DHT22;55949;52.590;7.330;2022-10-16T00:00:20;14.10;99.90
62998;DHT22;55949;52.590;7.330;2022-10-16T00:01:22;14.20;99.90
62998;DHT22;55949;52.590;7.330;2022-10-16T00:02:23;14.20;99.90
62998;DHT22;55949;52.590;7.330;2022-10-16T00:03:24;14.10;99.90
62998;DHT22;55949;52.590;7.330;2022-10-16T00:04:24;14.20;99.90
62998;DHT22;55949;52.590;7.330;2022-10-16T00:05:25;14.20;99.90
62998;DHT22;55949;52.590;7.330;2022-10-16T00:06:26;14.30;99.90
62998;DHT22;55949;52.590;7.330;2022-10-16T00:07:27;14.30;99.90
62998;DHT22;55949;52.590;7.330;2022-10-16T00:08:28;14.20;99.90
62998;DHT22;55949;52.590;7.330;2022-10-16T00:09:29;14.10;99.90
62998;DHT22;55949;52.590;7.330;2022-10-16T00:10:29;14.20;99.90
62998;DHT22;55949;52.590;7.330;2022-10-16T00:11:31;14.20;99.90
62998;DHT22;55949;52.590;7.330;2022-10-16T00:12:33;14.30;99.90
62998;DHT22;55949;52.590;7.330;2022-10-16T00:13:34;14.50;99.90
62998;DHT22;55949;52.590;7.330;2022-10-16T00:14:35;14.40;99.90
62998;DHT22;55949;52.590;7.330;2022-10-16T00:15:36;14.50;99.90
62998;DHT22;55949;52.590;7.330;2022-10-16T00:16:37;14.60;99.90
62998;DHT22;55949;52.590;7.330;2022-10-16T00:17:37;14.70;99.90
62998;DHT22;55949;52.590;7.330;2022-10-16T00:18:39;14.70;99.90
62998;DHT22;55949;52.590;7.330;2022-10-16T00:19:39;14.60;99.90
62998;DHT22;55949;52.590;7.330;2022-10-16T00:20:40;14.70;99.90
62998;DHT22;55949;52.590;7.330;2022-10-16T00:21:41;14.70;99.90
62998;DHT22;55949;52.590;7.330;2022-10-16T00:22:42;14.60;99.90
62998;DHT22;55949;52.590;7.330;2022-10-16T00:23:43;14.60;99.90
62998;DHT22;55949;52.590;7.330;2022-10-16T00:24:43;14.70;99.90
62998;DHT22;55949;52.590;7.330;2022-10-16T00:25:44;14.70;99.90
62998;DHT22;55949;52.590;7.330;2022-10-16T00:26:44;14.60;99.90
62998;DHT22;55949;52.590;7.330;2022-10-16T00:27:45;14.60;99.90
62998;DHT22;55949;52.590;7.330;2022-10-16T00:28:49;14.50;99.90
62998;DHT22;55949;52.590;7.330;2022-10-16T00:29:50;14.60;99.90
62998;DHT22;55949;52.590;7.330;2022-10-16T00:30:51;14.40;99.90
62998;DHT22;55949;52.590;7.330;2022-10-16T00:31:52;14.40;99.90
62998;DHT22;55949;52.590;7.330;2022-10-16T00:32:53;14.60;99.90
62998;DHT22;55949;52.590;7.330;2022-10-16T00:33:53;14.60;99.90
62998;DHT22;55949;52.590;7.330;2022-10-16T00:34:54;14.60;99.90
62998;DHT22;55949;52.590;7.330;2022-10-16T00:35:57;14.70;99.90
62998;DHT22;55949;52.590;7.330;2022-10-16T00:36:57;14.60;99.90
62998;DHT22;55949;52.590;7.330;2022-10-16T00:37:58;14.60;99.90
62998;DHT22;55949;52.590;7.330;2022-10-16T00:38:59;14.70;99.90
62998;DHT22;55949;52.590;7.330;2022-10-16T00:40:01;14.60;99.90
62998;DHT22;55949;52.590;7.330;2022-10-16T00:41:01;14.40;99.90
62998;DHT22;55949;52.590;7.330;2022-10-16T00:42:02;14.40;99.90
62998;DHT22;55949;52.590;7.330;2022-10-16T00:43:02;14.50;99.90
62998;DHT22;55949;52.590;7.330;2022-10-16T00:44:40;14.50;99.90
62998;DHT22;55949;52.590;7.330;2022-10-16T00:45:23;14.50;99.90
62998;DHT22;55949;52.590;7.330;2022-10-16T00:46:28;14.60;99.90
62998;DHT22;55949;52.590;7.330;2022-10-16T00:48:30;14.70;99.90
62998;DHT22;55949;52.590;7.330;2022-10-16T00:49:31;14.70;99.90
62998;DHT22;55949;52.590;7.330;2022-10-16T00:50:32;14.70;99.90
62998;DHT22;55949;52.590;7.330;2022-10-16T00:51:37;14.50;99.90
62998;DHT22;55949;52.590;7.330;2022-10-16T00:52:39;14.40;99.90
62998;DHT22;55949;52.590;7.330;2022-10-16T00:53:40;14.40;99.90
62998;DHT22;55949;52.590;7.330;2022-10-16T00:54:41;14.30;99.90
62998;DHT22;55949;52.590;7.330;2022-10-16T00:55:42;14.30;99.90
62998;DHT22;55949;52.590;7.330;2022-10-16T00:56:43;14.40;99.90
62998;DHT22;55949;52.590;7.330;2022-10-16T00:57:44;14.50;99.90
62998;DHT22;55949;52.590;7.330;2022-10-16T00:58:45;14.60;99.90
62998;DHT22;55949;52.590;7.330;2022-10-16T00:59:46;14.50;99.90
62998;DHT22;55949;52.590;7.330;2022-10-16T01:00:47;14.50;99.90
62998;DHT22;55949;52.590;7.330;2022-10-16T01:01:47;14.50;99.90
62998;DHT22;55949;52.590;7.330;2022-10-16T01:02:52;14.60;99.90
62998;DHT22;55949;52.590;7.330;2022-10-16T01:03:52;14.70;99.90
62998;DHT22;55949;52.590;7.330;2022-10-16T01:04:53;14.80;99.90
62998;DHT22;55949;52.590;7.330;2022-10-16T01:05:57;14.80;99.90
62998;DHT22;55949;52.590;7.330;2022-10-16T01:11:54;14.80;99.90
62998;DHT22;55949;52.590;7.330;2022-10-16T01:14:25;14.80;99.90
62998;DHT22;55949;52.590;7.330;2022-10-16T01:15:33;14.80;99.90
62998;DHT22;55949;52.590;7.330;2022-10-16T01:16:35;14.80;99.90
62998;DHT22;55949;52.590;7.330;2022-10-16T01:17:50;14.80;99.90
62998;DHT22;55949;52.590;7.330;2022-10-16T01:18:54;14.80;99.90
62998;DHT22;55949;52.590;7.330;2022-10-16T01:21:02;14.90;99.90
62998;DHT22;55949;52.590;7.330;2022-10-16T01:22:04;14.80;99.90
62998;DHT22;55949;52.590;7.330;2022-10-16T01:23:21;14.70;99.90
62998;DHT22;55949;52.590;7.330;2022-10-16T01:25:49;14.60;99.90
62998;DHT22;55949;52.590;7.330;2022-10-16T01:28:09;14.70;99.90
62998;DHT22;55949;52.590;7.330;2022-10-16T01:29:16;14.70;99.90
62998;DHT22;55949;52.590;7.330;2022-10-16T01:30:26;14.60;99.90
62998;DHT22;55949;52.590;7.330;2022-10-16T01:31:29;14.50;99.90
62998;DHT22;55949;52.590;7.330;2022-10-16T01:32:50;14.60;99.90
62998;DHT22;55949;52.590;7.330;2022-10-16T01:34:01;14.60;99.90
62998;DHT22;55949;52.590;7.330;2022-10-16T01:35:22;14.50;99.90
62998;DHT22;55949;52.590;7.330;2022-10-16T01:36:25;14.30;99.90
62998;DHT22;55949;52.590;7.330;2022-10-16T01:37:35;14.30;99.90
62998;DHT22;55949;52.590;7.330;2022-10-16T01:38:37;14.20;99.90
62998;DHT22;55949;52.590;7.330;2022-10-16T01:39:39;14.20;99.90
62998;DHT22;55949;52.590;7.330;2022-10-16T01:40:41;14.20;99.90
62998;DHT22;55949;52.590;7.330;2022-10-16T01:41:45;14.20;99.90
62998;DHT22;55949;52.590;7.330;2022-10-16T01:42:56;14.20;99.90
62998;DHT22;55949;52.590;7.330;2022-10-16T01:44:00;14.30;99.90
62998;DHT22;55949;52.590;7.330;2022-10-16T01:45:02;14.30;99.90
62998;DHT22;55949;52.590;7.330;2022-10-16T01:46:06;14.50;99.90
62998;DHT22;55949;52.590;7.330;2022-10-16T01:47:09;14.40;99.90
62998;DHT22;55949;52.590;7.330;2022-10-16T01:48:14;14.50;99.90
62998;DHT22;55949;52.590;7.330;2022-10-16T01:49:17;14.50;99.90
62998;DHT22;55949;52.590;7.330;2022-10-16T01:50:18;14.50;99.90
62998;DHT22;55949;52.590;7.330;2022-10-16T01:51:19;14.40;99.90
62998;DHT22;55949;52.590;7.330;2022-10-16T01:52:21;14.30;99.90
62998;DHT22;55949;52.590;7.330;2022-10-16T01:53:23;14.30;99.90
62998;DHT22;55949;52.590;7.330;2022-10-16T01:54:27;14.30;99.90
62998;DHT22;55949;52.590;7.330;2022-10-16T01:55:31;14.30;99.90
62998;DHT22;55949;52.590;7.330;2022-10-16T01:56:33;14.20;99.90
62998;DHT22;55949;52.590;7.330;2022-10-16T01:57:36;14.20;99.90
62998;DHT22;55949;52.590;7.330;2022-10-16T01:58:40;14.20;99.90
62998;DHT22;55949;52.590;7.330;2022-10-16T01:59:43;14.30;99.90
62998;DHT22;55949;52.590;7.330;2022-10-16T02:00:45;14.20;99.90
62998;DHT22;55949;52.590;7.330;2022-10-16T02:01:47;14.10;99.90
62998;DHT22;55949;52.590;7.330;2022-10-16T02:02:49;14.10;99.90
62998;DHT22;55949;52.590;7.330;2022-10-16T02:03:53;14.20;99.90
62998;DHT22;55949;52.590;7.330;2022-10-16T02:04:58;14.20;99.90
62998;DHT22;55949;52.590;7.330;2022-10-16T02:06:01;14.20;99.90
62998;DHT22;55949;52.590;7.330;2022-10-16T02:07:02;14.20;99.90
62998;DHT22;55949;52.590;7.330;2022-10-16T02:08:03;14.20;99.90
62998;DHT22;55949;52.590;7.330;2022-10-16T02:09:03;14.20;99.90
62998;DHT22;55949;52.590;7.330;2022-10-16T02:10:04;14.20;99.90
62998;DHT22;55949;52.590;7.330;2022-10-16T02:11:05;14.20;99.90
62998;DHT22;55949;52.590;7.330;2022-10-16T02:12:14;14.30;99.90
62998;DHT22;55949;52.590;7.330;2022-10-16T02:13:17;14.30;99.90
62998;DHT22;55949;52.590;7.330;2022-10-16T02:14:17;14.30;99.90
62998;DHT22;55949;52.590;7.330;2022-10-16T02:15:19;14.10;99.90
62998;DHT22;55949;52.590;7.330;2022-10-16T02:16:19;14.20;99.90
62998;DHT22;55949;52.590;7.330;2022-10-16T02:17:20;14.10;99.90
62998;DHT22;55949;52.590;7.330;2022-10-16T02:18:21;14.20;99.90
62998;DHT22;55949;52.590;7.330;2022-10-16T02:19:21;14.10;99.90
62998;DHT22;55949;52.590;7.330;2022-10-16T02:20:25;14.10;99.90
62998;DHT22;55949;52.590;7.330;2022-10-16T02:21:27;14.20;99.90
62998;DHT22;55949;52.590;7.330;2022-10-16T02:23:34;14.10;99.90
62998;DHT22;55949;52.590;7.330;2022-10-16T02:24:43;14.10;99.90
62998;DHT22;55949;52.590;7.330;2022-10-16T02:25:47;14.20;99.90
62998;DHT22;55949;52.590;7.330;2022-10-16T02:26:52;13.90;99.90
62998;DHT22;55949;52.590;7.330;2022-10-16T02:28:04;13.90;99.90
62998;DHT22;55949;52.590;7.330;2022-10-16T02:29:08;13.90;99.90
62998;DHT22;55949;52.590;7.330;2022-10-16T02:30:13;13.90;99.90
62998;DHT22;55949;52.590;7.330;2022-10-16T02:31:16;13.80;99.90
62998;DHT22;55949;52.590;7.330;2022-10-16T02:32:22;14.00;99.90
62998;DHT22;55949;52.590;7.330;2022-10-16T02:33:24;14.00;99.90
62998;DHT22;55949;52.590;7.330;2022-10-16T02:34:26;14.00;99.90
62998;DHT22;55949;52.590;7.330;2022-10-16T02:35:27;14.00;99.90
62998;DHT22;55949;52.590;7.330;2022-10-16T02:36:29;14.00;99.90
62998;DHT22;55949;52.590;7.330;2022-10-16T02:37:30;14.00;99.90
62998;DHT22;55949;52.590;7.330;2022-10-16T02:38:31;14.10;99.90
62998;DHT22;55949;52.590;7.330;2022-10-16T02:39:32;14.10;99.90
62998;DHT22;55949;52.590;7.330;2022-10-16T02:40:33;14.00;99.90
62998;DHT22;55949;52.590;7.330;2022-10-16T02:41:34;14.10;99.90
62998;DHT22;55949;52.590;7.330;2022-10-16T02:42:35;14.10;99.90
62998;DHT22;55949;52.590;7.330;2022-10-16T02:43:35;14.00;99.90
62998;DHT22;55949;52.590;7.330;2022-10-16T02:44:36;14.10;99.90
62998;DHT22;55949;52.590;7.330;2022-10-16T02:45:37;14.20;99.90
62998;DHT22;55949;52.590;7.330;2022-10-16T02:46:37;14.10;99.90
62998;DHT22;55949;52.590;7.330;2022-10-16T02:47:38;14.00;99.90
62998;DHT22;55949;52.590;7.330;2022-10-16T02:48:38;13.90;99.90
62998;DHT22;55949;52.590;7.330;2022-10-16T02:49:39;13.80;99.90
62998;DHT22;55949;52.590;7.330;2022-10-16T02:50:40;13.70;99.90
62998;DHT22;55949;52.590;7.330;2022-10-16T02:51:40;13.80;99.90
62998;DHT22;55949;52.590;7.330;2022-10-16T02:52:41;13.80;99.90
62998;DHT22;55949;52.590;7.330;2022-10-16T02:53:42;13.70;99.90
62998;DHT22;55949;52.590;7.330;2022-10-16T02:54:42;13.80;99.90
62998;DHT22;55949;52.590;7.330;2022-10-16T02:55:43;14.00;99.90
62998;DHT22;55949;52.590;7.330;2022-10-16T02:56:43;13.90;99.90
62998;DHT22;55949;52.590;7.330;2022-10-16T02:57:44;14.00;99.90
62998;DHT22;55949;52.590;7.330;2022-10-16T02:58:44;14.10;99.90
62998;DHT22;55949;52.590;7.330;2022-10-16T02:59:45;14.20;99.90
62998;DHT22;55949;52.590;7.330;2022-10-16T03:00:45;14.20;99.90
62998;DHT22;55949;52.590;7.330;2022-10-16T03:01:46;14.20;99.90
62998;DHT22;55949;52.590;7.330;2022-10-16T03:02:47;14.20;99.90
62998;DHT22;55949;52.590;7.330;2022-10-16T03:03:47;14.30;99.90
62998;DHT22;55949;52.590;7.330;2022-10-16T03:04:48;14.30;99.90
62998;DHT22;55949;52.590;7.330;2022-10-16T03:05:48;14.30;99.90
62998;DHT22;55949;52.590;7.330;2022-10-16T03:06:49;14.20;99.90
62998;DHT22;55949;52.590;7.330;2022-10-16T03:07:49;14.20;99.90
62998;DHT22;55949;52.590;7.330;2022-10-16T03:08:50;14.10;99.90
62998;DHT22;55949;52.590;7.330;2022-10-16T03:09:51;14.10;99.90
62998;DHT22;55949;52.590;7.330;2022-10-16T03:10:51;14.00;99.90
62998;DHT22;55949;52.590;7.330;2022-10-16T03:11:52;14.10;99.90
62998;DHT22;55949;52.590;7.330;2022-10-16T03:12:52;14.10;99.90
62998;DHT22;55949;52.590;7.330;2022-10-16T03:13:53;14.00;99.90
62998;DHT22;55949;52.590;7.330;2022-10-16T03:14:54;14.10;99.90
62998;DHT22;55949;52.590;7.330;2022-10-16T03:15:55;14.00;99.90
62998;DHT22;55949;52.590;7.330;2022-10-16T03:16:55;13.80;99.90
62998;DHT22;55949;52.590;7.330;2022-10-16T03:17:59;13.80;99.90
62998;DHT22;55949;52.590;7.330;2022-10-16T03:19:00;14.00;99.90
62998;DHT22;55949;52.590;7.330;2022-10-16T03:20:01;14.10;99.90
62998;DHT22;55949;52.590;7.330;2022-10-16T03:21:02;14.00;99.90
62998;DHT22;55949;52.590;7.330;2022-10-16T03:22:02;14.20;99.90
62998;DHT22;55949;52.590;7.330;2022-10-16T03:23:03;14.20;99.90
62998;DHT22;55949;52.590;7.330;2022-10-16T03:24:04;14.20;99.90
62998;DHT22;55949;52.590;7.330;2022-10-16T03:25:04;14.10;99.90
62998;DHT22;55949;52.590;7.330;2022-10-16T03:26:05;14.00;99.90
62998;DHT22;55949;52.590;7.330;2022-10-16T03:27:06;14.10;99.90
62998;DHT22;55949;52.590;7.330;2022-10-16T03:28:06;14.10;99.90
62998;DHT22;55949;52.590;7.330;2022-10-16T03:29:07;14.10;99.90
62998;DHT22;55949;52.590;7.330;2022-10-16T03:30:08;14.20;99.90
62998;DHT22;55949;52.590;7.330;2022-10-16T03:31:09;14.20;99.90
62998;DHT22;55949;52.590;7.330;2022-10-16T03:32:09;14.20;99.90
62998;DHT22;55949;52.590;7.330;2022-10-16T03:33:10;14.20;99.90
62998;DHT22;55949;52.590;7.330;2022-10-16T03:34:13;14.10;99.90
62998;DHT22;55949;52.590;7.330;2022-10-16T03:35:14;14.20;99.90
62998;DHT22;55949;52.590;7.330;2022-10-16T03:36:14;14.20;99.90
62998;DHT22;55949;52.590;7.330;2022-10-16T03:37:15;14.10;99.90
62998;DHT22;55949;52.590;7.330;2022-10-16T03:38:16;14.20;99.90
62998;DHT22;55949;52.590;7.330;2022-10-16T03:39:16;14.20;99.90
62998;DHT22;55949;52.590;7.330;2022-10-16T03:40:17;14.10;99.90
62998;DHT22;55949;52.590;7.330;2022-10-16T03:41:17;14.10;99.90
62998;DHT22;55949;52.590;7.330;2022-10-16T03:42:18;14.20;99.90
62998;DHT22;55949;52.590;7.330;2022-10-16T03:43:19;14.20;99.90
62998;DHT22;55949;52.590;7.330;2022-10-16T03:44:19;14.20;99.90
62998;DHT22;55949;52.590;7.330;2022-10-16T03:45:20;14.30;99.90
62998;DHT22;55949;52.590;7.330;2022-10-16T03:46:21;14.30;99.90
62998;DHT22;55949;52.590;7.330;2022-10-16T03:47:21;14.40;99.90
62998;DHT22;55949;52.590;7.330;2022-10-16T03:48:23;14.30;99.90
62998;DHT22;55949;52.590;7.330;2022-10-16T03:49:24;14.40;99.90
62998;DHT22;55949;52.590;7.330;2022-10-16T03:50:24;14.40;99.90
62998;DHT22;55949;52.590;7.330;2022-10-16T03:51:25;14.40;99.90
62998;DHT22;55949;52.590;7.330;2022-10-16T03:52:26;14.40;99.90
62998;DHT22;55949;52.590;7.330;2022-10-16T03:53:26;14.30;99.90
62998;DHT22;55949;52.590;7.330;2022-10-16T03:54:27;14.30;99.90
62998;DHT22;55949;52.590;7.330;2022-10-16T03:55:27;14.30;99.90
62998;DHT22;55949;52.590;7.330;2022-10-16T03:56:28;14.30;99.90
62998;DHT22;55949;52.590;7.330;2022-10-16T03:57:28;14.30;99.90
62998;DHT22;55949;52.590;7.330;2022-10-16T03:58:29;14.20;99.90
62998;DHT22;55949;52.590;7.330;2022-10-16T03:59:30;14.30;99.90
62998;DHT22;55949;52.590;7.330;2022-10-16T04:00:30;14.30;99.90
62998;DHT22;55949;52.590;7.330;2022-10-16T04:01:31;14.20;99.90
62998;DHT22;55949;52.590;7.330;2022-10-16T04:02:31;14.20;99.90
62998;DHT22;55949;52.590;7.330;2022-10-16T04:03:32;14.20;99.90
62998;DHT22;55949;52.590;7.330;2022-10-16T04:04:32;14.20;99.90
62998;DHT22;55949;52.590;7.330;2022-10-16T04:05:33;14.30;99.90
62998;DHT22;55949;52.590;7.330;2022-10-16T04:06:34;14.20;99.90
62998;DHT22;55949;52.590;7.330;2022-10-16T04:07:34;14.20;99.90
62998;DHT22;55949;52.590;7.330;2022-10-16T04:08:35;14.20;99.90
62998;DHT22;55949;52.590;7.330;2022-10-16T04:09:36;14.30;99.90
62998;DHT22;55949;52.590;7.330;2022-10-16T04:10:37;14.30;99.90
62998;DHT22;55949;52.590;7.330;2022-10-16T04:11:37;14.40;99.90
62998;DHT22;55949;52.590;7.330;2022-10-16T04:12:39;14.50;99.90
62998;DHT22;55949;52.590;7.330;2022-10-16T04:13:39;14.60;99.90
62998;DHT22;55949;52.590;7.330;2022-10-16T04:14:40;14.50;99.90
62998;DHT22;55949;52.590;7.330;2022-10-16T04:15:40;14.60;99.90
62998;DHT22;55949;52.590;7.330;2022-10-16T04:16:41;14.70;99.90
62998;DHT22;55949;52.590;7.330;2022-10-16T04:17:41;14.80;99.90
62998;DHT22;55949;52.590;7.330;2022-10-16T04:18:42;14.80;99.90
62998;DHT22;55949;52.590;7.330;2022-10-16T04:19:43;15.00;99.90
62998;DHT22;55949;52.590;7.330;2022-10-16T04:20:43;15.00;99.90
62998;DHT22;55949;52.590;7.330;2022-10-16T04:21:44;15.00;99.90
62998;DHT22;55949;52.590;7.330;2022-10-16T04:22:44;15.00;99.90
62998;DHT22;55949;52.590;7.330;2022-10-16T04:23:45;14.90;99.90
62998;DHT22;55949;52.590;7.330;2022-10-16T04:24:45;14.80;99.90
62998;DHT22;55949;52.590;7.330;2022-10-16T04:25:46;14.80;99.90
62998;DHT22;55949;52.590;7.330;2022-10-16T04:26:46;14.70;99.90
62998;DHT22;55949;52.590;7.330;2022-10-16T04:27:47;14.70;99.90
62998;DHT22;55949;52.590;7.330;2022-10-16T04:28:47;14.70;99.90
62998;DHT22;55949;52.590;7.330;2022-10-16T04:29:48;14.80;99.90
62998;DHT22;55949;52.590;7.330;2022-10-16T04:30:48;14.80;99.90
62998;DHT22;55949;52.590;7.330;2022-10-16T04:31:49;14.80;99.90
62998;DHT22;55949;52.590;7.330;2022-10-16T04:32:50;14.80;99.90
62998;DHT22;55949;52.590;7.330;2022-10-16T04:33:51;14.80;99.90
62998;DHT22;55949;52.590;7.330;2022-10-16T04:34:52;14.80;99.90
62998;DHT22;55949;52.590;7.330;2022-10-16T04:35:56;14.90;99.90
62998;DHT22;55949;52.590;7.330;2022-10-16T04:36:56;15.10;99.90
62998;DHT22;55949;52.590;7.330;2022-10-16T04:37:57;15.10;99.90
62998;DHT22;55949;52.590;7.330;2022-10-16T04:38:58;15.10;99.90
62998;DHT22;55949;52.590;7.330;2022-10-16T04:39:58;15.20;99.90
62998;DHT22;55949;52.590;7.330;2022-10-16T04:40:59;15.20;99.90
62998;DHT22;55949;52.590;7.330;2022-10-16T04:42:00;15.20;99.90
62998;DHT22;55949;52.590;7.330;2022-10-16T04:43:01;15.20;99.90
62998;DHT22;55949;52.590;7.330;2022-10-16T04:44:01;15.10;99.90
62998;DHT22;55949;52.590;7.330;2022-10-16T04:45:02;15.20;99.90
62998;DHT22;55949;52.590;7.330;2022-10-16T04:46:03;15.30;99.90
62998;DHT22;55949;52.590;7.330;2022-10-16T04:47:04;15.30;99.90
62998;DHT22;55949;52.590;7.330;2022-10-16T04:48:05;15.30;99.90
62998;DHT22;55949;52.590;7.330;2022-10-16T04:49:06;15.10;99.90
62998;DHT22;55949;52.590;7.330;2022-10-16T04:50:06;15.20;99.90
62998;DHT22;55949;52.590;7.330;2022-10-16T04:51:08;15.20;99.90
62998;DHT22;55949;52.590;7.330;2022-10-16T04:52:08;15.10;99.90
62998;DHT22;55949;52.590;7.330;2022-10-16T04:53:09;14.90;99.90
62998;DHT22;55949;52.590;7.330;2022-10-16T04:54:10;14.90;99.90
62998;DHT22;55949;52.590;7.330;2022-10-16T04:55:10;14.80;99.90
62998;DHT22;55949;52.590;7.330;2022-10-16T04:56:11;14.70;99.90
62998;DHT22;55949;52.590;7.330;2022-10-16T04:57:12;14.70;99.90
62998;DHT22;55949;52.590;7.330;2022-10-16T04:58:12;14.80;99.90
62998;DHT22;55949;52.590;7.330;2022-10-16T04:59:14;14.80;99.90
62998;DHT22;55949;52.590;7.330;2022-10-16T05:00:14;14.80;99.90
62998;DHT22;55949;52.590;7.330;2022-10-16T05:01:15;14.80;99.90
62998;DHT22;55949;52.590;7.330;2022-10-16T05:02:15;14.80;99.90
62998;DHT22;55949;52.590;7.330;2022-10-16T05:03:16;14.90;99.90
62998;DHT22;55949;52.590;7.330;2022-10-16T05:04:17;14.80;99.90
62998;DHT22;55949;52.590;7.330;2022-10-16T05:05:17;14.70;99.90
62998;DHT22;55949;52.590;7.330;2022-10-16T05:06:19;14.80;99.90
62998;DHT22;55949;52.590;7.330;2022-10-16T05:07:20;14.80;99.90
62998;DHT22;55949;52.590;7.330;2022-10-16T05:08:20;15.00;99.90
62998;DHT22;55949;52.590;7.330;2022-10-16T05:09:21;14.80;99.90
62998;DHT22;55949;52.590;7.330;2022-10-16T05:10:22;14.80;99.90
62998;DHT22;55949;52.590;7.330;2022-10-16T05:11:22;14.70;99.90
62998;DHT22;55949;52.590;7.330;2022-10-16T05:12:23;14.70;99.90
62998;DHT22;55949;52.590;7.330;2022-10-16T05:13:23;14.50;99.90
62998;DHT22;55949;52.590;7.330;2022-10-16T05:14:24;14.60;99.90
62998;DHT22;55949;52.590;7.330;2022-10-16T05:15:24;14.60;99.90
62998;DHT22;55949;52.590;7.330;2022-10-16T05:16:25;14.70;99.90
62998;DHT22;55949;52.590;7.330;2022-10-16T05:17:26;14.80;99.90
62998;DHT22;55949;52.590;7.330;2022-10-16T05:18:26;14.80;99.90
62998;DHT22;55949;52.590;7.330;2022-10-16T05:19:27;14.80;99.90
62998;DHT22;55949;52.590;7.330;2022-10-16T05:20:28;14.70;99.90
62998;DHT22;55949;52.590;7.330;2022-10-16T05:21:28;14.60;99.90
62998;DHT22;55949;52.590;7.330;2022-10-16T05:22:29;14.70;99.90
62998;DHT22;55949;52.590;7.330;2022-10-16T05:23:29;14.70;99.90
62998;DHT22;55949;52.590;7.330;2022-10-16T05:24:30;14.80;99.90
62998;DHT22;55949;52.590;7.330;2022-10-16T05:25:30;14.80;99.90
62998;DHT22;55949;52.590;7.330;2022-10-16T05:26:31;14.70;99.90
62998;DHT22;55949;52.590;7.330;2022-10-16T05:27:32;14.70;99.90
62998;DHT22;55949;52.590;7.330;2022-10-16T05:28:32;14.70;99.90
62998;DHT22;55949;52.590;7.330;2022-10-16T05:29:33;14.80;99.90
62998;DHT22;55949;52.590;7.330;2022-10-16T05:30:33;14.80;99.90
62998;DHT22;55949;52.590;7.330;2022-10-16T05:31:34;14.80;99.90
62998;DHT22;55949;52.590;7.330;2022-10-16T05:32:35;14.90;99.90
62998;DHT22;55949;52.590;7.330;2022-10-16T05:33:35;15.00;99.90
62998;DHT22;55949;52.590;7.330;2022-10-16T05:34:36;15.10;99.90
62998;DHT22;55949;52.590;7.330;2022-10-16T05:35:37;15.10;99.90
62998;DHT22;55949;52.590;7.330;2022-10-16T05:36:37;15.00;99.90
62998;DHT22;55949;52.590;7.330;2022-10-16T05:37:38;14.90;99.90
62998;DHT22;55949;52.590;7.330;2022-10-16T05:38:38;14.90;99.90
62998;DHT22;55949;52.590;7.330;2022-10-16T05:39:39;15.00;99.90
62998;DHT22;55949;52.590;7.330;2022-10-16T05:40:40;14.90;99.90
62998;DHT22;55949;52.590;7.330;2022-10-16T05:41:40;15.00;99.90
62998;DHT22;55949;52.590;7.330;2022-10-16T05:42:41;14.90;99.90
62998;DHT22;55949;52.590;7.330;2022-10-16T05:43:41;14.80;99.90
62998;DHT22;55949;52.590;7.330;2022-10-16T05:44:42;14.90;99.90
62998;DHT22;55949;52.590;7.330;2022-10-16T05:45:42;14.80;99.90
62998;DHT22;55949;52.590;7.330;2022-10-16T05:46:43;14.50;99.90
62998;DHT22;55949;52.590;7.330;2022-10-16T05:47:43;14.60;99.90
62998;DHT22;55949;52.590;7.330;2022-10-16T05:48:44;14.60;99.90
62998;DHT22;55949;52.590;7.330;2022-10-16T05:49:44;14.60;99.90
62998;DHT22;55949;52.590;7.330;2022-10-16T05:50:45;14.70;99.90
62998;DHT22;55949;52.590;7.330;2022-10-16T05:51:46;14.50;99.90
62998;DHT22;55949;52.590;7.330;2022-10-16T05:52:46;14.50;99.90
62998;DHT22;55949;52.590;7.330;2022-10-16T05:53:47;14.60;99.90
62998;DHT22;55949;52.590;7.330;2022-10-16T05:54:48;14.60;99.90
62998;DHT22;55949;52.590;7.330;2022-10-16T05:55:51;14.40;99.90
62998;DHT22;55949;52.590;7.330;2022-10-16T05:56:52;14.50;99.90
62998;DHT22;55949;52.590;7.330;2022-10-16T05:57:54;14.60;99.90
62998;DHT22;55949;52.590;7.330;2022-10-16T05:58:54;14.70;99.90
62998;DHT22;55949;52.590;7.330;2022-10-16T05:59:55;14.60;99.90
62998;DHT22;55949;52.590;7.330;2022-10-16T06:00:56;14.20;99.90
62998;DHT22;55949;52.590;7.330;2022-10-16T06:01:57;14.10;99.90
62998;DHT22;55949;52.590;7.330;2022-10-16T06:02:58;14.10;99.90
62998;DHT22;55949;52.590;7.330;2022-10-16T06:03:58;14.10;99.90
62998;DHT22;55949;52.590;7.330;2022-10-16T06:04:59;14.20;99.90
62998;DHT22;55949;52.590;7.330;2022-10-16T06:06:06;14.30;99.90
62998;DHT22;55949;52.590;7.330;2022-10-16T06:07:07;14.30;99.90
62998;DHT22;55949;52.590;7.330;2022-10-16T06:08:08;14.20;99.90
62998;DHT22;55949;52.590;7.330;2022-10-16T06:09:09;14.10;99.90
62998;DHT22;55949;52.590;7.330;2022-10-16T06:10:09;13.90;99.90
62998;DHT22;55949;52.590;7.330;2022-10-16T06:11:11;13.90;99.90
62998;DHT22;55949;52.590;7.330;2022-10-16T06:12:12;13.90;99.90
62998;DHT22;55949;52.590;7.330;2022-10-16T06:13:13;13.90;99.90
62998;DHT22;55949;52.590;7.330;2022-10-16T06:14:14;14.00;99.90
62998;DHT22;55949;52.590;7.330;2022-10-16T06:15:14;14.00;99.90
62998;DHT22;55949;52.590;7.330;2022-10-16T06:16:15;14.00;99.90
62998;DHT22;55949;52.590;7.330;2022-10-16T06:17:16;13.80;99.90
62998;DHT22;55949;52.590;7.330;2022-10-16T06:18:16;13.80;99.90
62998;DHT22;55949;52.590;7.330;2022-10-16T06:19:17;13.80;99.90
62998;DHT22;55949;52.590;7.330;2022-10-16T06:20:18;13.90;99.90
62998;DHT22;55949;52.590;7.330;2022-10-16T06:21:20;14.00;99.90
62998;DHT22;55949;52.590;7.330;2022-10-16T06:22:21;13.90;99.90
62998;DHT22;55949;52.590;7.330;2022-10-16T06:23:22;14.00;99.90
62998;DHT22;55949;52.590;7.330;2022-10-16T06:24:22;14.00;99.90
62998;DHT22;55949;52.590;7.330;2022-10-16T06:25:23;13.90;99.90
62998;DHT22;55949;52.590;7.330;2022-10-16T06:26:27;14.00;99.90
62998;DHT22;55949;52.590;7.330;2022-10-16T06:27:28;14.00;99.90
62998;DHT22;55949;52.590;7.330;2022-10-16T06:28:29;13.80;99.90
62998;DHT22;55949;52.590;7.330;2022-10-16T06:29:29;13.80;99.90
62998;DHT22;55949;52.590;7.330;2022-10-16T06:30:30;13.70;99.90
62998;DHT22;55949;52.590;7.330;2022-10-16T06:31:30;13.80;99.90
62998;DHT22;55949;52.590;7.330;2022-10-16T06:32:33;13.70;99.90
62998;DHT22;55949;52.590;7.330;2022-10-16T06:33:34;13.60;99.90
62998;DHT22;55949;52.590;7.330;2022-10-16T06:34:35;13.60;99.90
62998;DHT22;55949;52.590;7.330;2022-10-16T06:35:35;13.50;99.90
62998;DHT22;55949;52.590;7.330;2022-10-16T06:36:36;13.50;99.90
62998;DHT22;55949;52.590;7.330;2022-10-16T06:37:36;13.50;99.90
62998;DHT22;55949;52.590;7.330;2022-10-16T06:38:37;13.50;99.90
62998;DHT22;55949;52.590;7.330;2022-10-16T06:39:38;13.50;99.90
62998;DHT22;55949;52.590;7.330;2022-10-16T06:40:39;13.50;99.90